首页
METAR-TAF:

METAR-TAF

机场 :

尼亞姆圖古, 多哥

纬度: 09-46N, 经度: 001-06E, 海拔: 342米

当前天气观测

该预报发布于36分钟前的14:00 UTC
风速5节,风向多变
温度 34°C
湿度 36%
气压 1012 hPa
能见度10公里或以上
散云层高于900英尺

METAR: DXNG 221400Z VRB05KT 9999 SCT009 34/17 Q1012 NOSIG

时间: 14:36 (14:36 UTC)

预报

该预报发布于3小时和36分钟前的11:00 UTC
预报有效从22日的 12点(UTC)到 23日的 12点(UTC)
风速8节,风向西南
能见度10公里或以上
少量云层高于1000英尺
几率 30% :
短暂存在
从 22日的 16点(UTC)到 22日的 20点(UTC)
多云层高于1000英尺
少量云层高于1600英尺, 积雨云.
雷暴

TAF: DXNG 221100Z 2212/2312 22008KT 9999 FEW010 PROB30 TEMPO 2216/2220 TS BKN010 FEW016CB

超过4000个机场的气象观测和天气预报(METAR&TAF报告)。

可查询的气象台以黄色和红色小点在地图上表示。

将鼠标移到小点上方,可查看气象台名称。

然后点击查看天气观测和预报。

如需切换地图:点击带黑十字的绿色按钮放大地图;点击带横线的绿色按钮缩小地图;或者点击绿色箭头查看邻近地区的地图。


METAR-TAF: